EKHR weather

Horns Rev A Helideck
Denmark

Public forecast

Using degrees Celsius for public forecast. Weather courtesy of forecast.io.

METAR (pilot weather report)

Report is more than 6 hours old.

Retrieved 2016/10/04 04:20 UTC (3 years ago):

EKHR 040420Z AUTO 08002KT 9999NDV NCD 11/M49 Q1038

TAF (pilot weather forecast)

Forecast is more than 12 hours old.

Closest forecast is Esbjerg Airport, 23.1 nm (42.8 km) E. Retrieved 2015/09/18 18:00 UTC (4 years ago):

TAF EKEB 181707Z 1818/1822 24008KT 9999 SCT025 TEMPO 1818/1820 -SHRA SCT020CB